sensor_id;sensor_type;location;lat;lon;timestamp;temperature;humidity
31733;DHT22;18312;51.486;7.144;2023-07-28T00:00:45;17.40;99.90
31733;DHT22;18312;51.486;7.144;2023-07-28T00:03:13;17.50;99.90
31733;DHT22;18312;51.486;7.144;2023-07-28T00:05:40;17.40;99.90
31733;DHT22;18312;51.486;7.144;2023-07-28T00:08:06;17.40;99.90
31733;DHT22;18312;51.486;7.144;2023-07-28T00:10:33;17.40;99.90
31733;DHT22;18312;51.486;7.144;2023-07-28T00:13:01;17.40;99.90
31733;DHT22;18312;51.486;7.144;2023-07-28T00:15:28;17.50;99.90
31733;DHT22;18312;51.486;7.144;2023-07-28T00:17:55;17.50;99.90
31733;DHT22;18312;51.486;7.144;2023-07-28T00:20:23;17.50;99.90
31733;DHT22;18312;51.486;7.144;2023-07-28T00:22:50;17.40;99.90
31733;DHT22;18312;51.486;7.144;2023-07-28T00:25:16;17.40;99.90
31733;DHT22;18312;51.486;7.144;2023-07-28T00:27:43;17.40;99.90
31733;DHT22;18312;51.486;7.144;2023-07-28T00:30:12;17.40;99.90
31733;DHT22;18312;51.486;7.144;2023-07-28T00:32:38;17.40;99.90
31733;DHT22;18312;51.486;7.144;2023-07-28T00:35:06;17.50;99.90
31733;DHT22;18312;51.486;7.144;2023-07-28T00:37:33;17.50;99.90
31733;DHT22;18312;51.486;7.144;2023-07-28T00:39:59;17.50;99.90
31733;DHT22;18312;51.486;7.144;2023-07-28T00:42:26;17.50;99.90
31733;DHT22;18312;51.486;7.144;2023-07-28T00:44:53;17.50;99.90
31733;DHT22;18312;51.486;7.144;2023-07-28T00:47:21;17.50;99.90
31733;DHT22;18312;51.486;7.144;2023-07-28T00:49:48;17.40;99.90
31733;DHT22;18312;51.486;7.144;2023-07-28T00:52:15;17.40;99.90
31733;DHT22;18312;51.486;7.144;2023-07-28T00:54:41;17.50;99.90
31733;DHT22;18312;51.486;7.144;2023-07-28T00:57:08;17.50;99.90
31733;DHT22;18312;51.486;7.144;2023-07-28T00:59:35;17.50;99.90
31733;DHT22;18312;51.486;7.144;2023-07-28T01:02:02;17.50;99.90
31733;DHT22;18312;51.486;7.144;2023-07-28T01:04:30;17.50;99.90
31733;DHT22;18312;51.486;7.144;2023-07-28T01:07:01;17.50;99.90
31733;DHT22;18312;51.486;7.144;2023-07-28T01:09:36;17.50;99.90
31733;DHT22;18312;51.486;7.144;2023-07-28T01:12:08;17.40;99.90
31733;DHT22;18312;51.486;7.144;2023-07-28T01:14:35;17.50;99.90
31733;DHT22;18312;51.486;7.144;2023-07-28T01:17:02;17.50;99.90
31733;DHT22;18312;51.486;7.144;2023-07-28T01:19:30;17.50;99.90
31733;DHT22;18312;51.486;7.144;2023-07-28T01:22:07;17.50;99.90
31733;DHT22;18312;51.486;7.144;2023-07-28T01:24:49;17.50;99.90
31733;DHT22;18312;51.486;7.144;2023-07-28T01:27:17;17.50;99.90
31733;DHT22;18312;51.486;7.144;2023-07-28T01:29:44;17.50;99.90
31733;DHT22;18312;51.486;7.144;2023-07-28T01:32:11;17.50;99.90
31733;DHT22;18312;51.486;7.144;2023-07-28T01:34:38;17.50;99.90
31733;DHT22;18312;51.486;7.144;2023-07-28T01:37:05;17.50;99.90
31733;DHT22;18312;51.486;7.144;2023-07-28T01:39:32;17.50;99.90
31733;DHT22;18312;51.486;7.144;2023-07-28T01:41:59;17.50;99.90
31733;DHT22;18312;51.486;7.144;2023-07-28T01:44:27;17.50;99.90
31733;DHT22;18312;51.486;7.144;2023-07-28T01:46:54;17.50;99.90
31733;DHT22;18312;51.486;7.144;2023-07-28T01:49:20;17.50;99.90
31733;DHT22;18312;51.486;7.144;2023-07-28T01:51:47;17.50;99.90
31733;DHT22;18312;51.486;7.144;2023-07-28T01:54:14;17.50;99.90
31733;DHT22;18312;51.486;7.144;2023-07-28T01:56:40;17.50;99.90
31733;DHT22;18312;51.486;7.144;2023-07-28T01:59:07;17.60;99.90
31733;DHT22;18312;51.486;7.144;2023-07-28T02:01:35;17.60;99.90
31733;DHT22;18312;51.486;7.144;2023-07-28T02:04:02;17.60;99.90
31733;DHT22;18312;51.486;7.144;2023-07-28T02:06:29;17.60;99.90
31733;DHT22;18312;51.486;7.144;2023-07-28T02:08:56;17.60;99.90
31733;DHT22;18312;51.486;7.144;2023-07-28T02:11:23;17.60;99.90
31733;DHT22;18312;51.486;7.144;2023-07-28T02:13:50;17.60;99.90
31733;DHT22;18312;51.486;7.144;2023-07-28T02:16:16;17.60;99.90
31733;DHT22;18312;51.486;7.144;2023-07-28T02:18:44;17.60;99.90
31733;DHT22;18312;51.486;7.144;2023-07-28T02:21:11;17.70;99.90
31733;DHT22;18312;51.486;7.144;2023-07-28T02:23:37;17.70;99.90
31733;DHT22;18312;51.486;7.144;2023-07-28T02:26:04;17.70;99.90
31733;DHT22;18312;51.486;7.144;2023-07-28T02:28:30;17.60;99.90
31733;DHT22;18312;51.486;7.144;2023-07-28T02:30:57;17.70;99.90
31733;DHT22;18312;51.486;7.144;2023-07-28T02:33:24;17.60;99.90
31733;DHT22;18312;51.486;7.144;2023-07-28T02:35:52;17.70;99.90
31733;DHT22;18312;51.486;7.144;2023-07-28T02:38:18;17.70;99.90
31733;DHT22;18312;51.486;7.144;2023-07-28T02:40:45;17.70;99.90
31733;DHT22;18312;51.486;7.144;2023-07-28T02:43:12;17.70;99.90
31733;DHT22;18312;51.486;7.144;2023-07-28T02:45:38;17.70;99.90
31733;DHT22;18312;51.486;7.144;2023-07-28T02:48:05;17.70;99.90
31733;DHT22;18312;51.486;7.144;2023-07-28T02:50:31;17.80;99.90
31733;DHT22;18312;51.486;7.144;2023-07-28T02:52:59;17.70;99.90
31733;DHT22;18312;51.486;7.144;2023-07-28T02:55:26;17.70;99.90
31733;DHT22;18312;51.486;7.144;2023-07-28T02:57:52;17.80;99.90
31733;DHT22;18312;51.486;7.144;2023-07-28T03:00:19;17.80;99.90
31733;DHT22;18312;51.486;7.144;2023-07-28T03:02:46;17.70;99.90
31733;DHT22;18312;51.486;7.144;2023-07-28T03:05:12;17.80;99.90
31733;DHT22;18312;51.486;7.144;2023-07-28T03:07:39;17.80;99.90
31733;DHT22;18312;51.486;7.144;2023-07-28T03:10:07;17.80;99.90
31733;DHT22;18312;51.486;7.144;2023-07-28T03:12:34;17.80;99.90
31733;DHT22;18312;51.486;7.144;2023-07-28T03:15:00;17.80;99.90
31733;DHT22;18312;51.486;7.144;2023-07-28T03:17:27;17.70;99.90
31733;DHT22;18312;51.486;7.144;2023-07-28T03:19:53;17.80;99.90
31733;DHT22;18312;51.486;7.144;2023-07-28T03:22:20;17.80;99.90
31733;DHT22;18312;51.486;7.144;2023-07-28T03:24:47;17.80;99.90
31733;DHT22;18312;51.486;7.144;2023-07-28T03:27:16;17.80;99.90
31733;DHT22;18312;51.486;7.144;2023-07-28T03:29:43;17.80;99.90
31733;DHT22;18312;51.486;7.144;2023-07-28T03:32:09;17.80;99.90
31733;DHT22;18312;51.486;7.144;2023-07-28T03:34:36;17.80;99.90
31733;DHT22;18312;51.486;7.144;2023-07-28T03:37:05;17.80;99.90
31733;DHT22;18312;51.486;7.144;2023-07-28T03:39:31;17.80;99.90
31733;DHT22;18312;51.486;7.144;2023-07-28T03:41:58;17.80;99.90
31733;DHT22;18312;51.486;7.144;2023-07-28T03:44:26;17.90;99.90
31733;DHT22;18312;51.486;7.144;2023-07-28T03:46:52;17.90;99.90
31733;DHT22;18312;51.486;7.144;2023-07-28T03:49:19;17.90;99.90
31733;DHT22;18312;51.486;7.144;2023-07-28T03:51:45;17.90;99.90
31733;DHT22;18312;51.486;7.144;2023-07-28T03:54:12;17.90;99.90
31733;DHT22;18312;51.486;7.144;2023-07-28T03:56:39;17.90;99.90
31733;DHT22;18312;51.486;7.144;2023-07-28T03:59:05;17.90;99.90
31733;DHT22;18312;51.486;7.144;2023-07-28T04:01:33;17.90;99.90
31733;DHT22;18312;51.486;7.144;2023-07-28T04:04:00;17.90;99.90
31733;DHT22;18312;51.486;7.144;2023-07-28T04:06:41;17.90;99.90
31733;DHT22;18312;51.486;7.144;2023-07-28T04:09:08;17.90;99.90
31733;DHT22;18312;51.486;7.144;2023-07-28T04:11:34;17.90;99.90
31733;DHT22;18312;51.486;7.144;2023-07-28T04:14:01;18.00;99.90
31733;DHT22;18312;51.486;7.144;2023-07-28T04:16:28;18.00;99.90
31733;DHT22;18312;51.486;7.144;2023-07-28T04:18:56;18.00;99.90
31733;DHT22;18312;51.486;7.144;2023-07-28T04:21:23;18.00;99.90
31733;DHT22;18312;51.486;7.144;2023-07-28T04:23:49;18.00;99.90
31733;DHT22;18312;51.486;7.144;2023-07-28T04:26:16;18.00;99.90
31733;DHT22;18312;51.486;7.144;2023-07-28T04:28:43;18.10;99.90
31733;DHT22;18312;51.486;7.144;2023-07-28T04:31:09;18.10;99.90
31733;DHT22;18312;51.486;7.144;2023-07-28T04:33:36;18.10;99.90
31733;DHT22;18312;51.486;7.144;2023-07-28T04:36:04;18.10;99.90
31733;DHT22;18312;51.486;7.144;2023-07-28T04:38:30;18.10;99.90
31733;DHT22;18312;51.486;7.144;2023-07-28T04:40:57;18.20;99.90
31733;DHT22;18312;51.486;7.144;2023-07-28T04:43:24;18.20;99.90
31733;DHT22;18312;51.486;7.144;2023-07-28T04:45:50;18.20;99.90
31733;DHT22;18312;51.486;7.144;2023-07-28T04:48:17;18.20;99.90
31733;DHT22;18312;51.486;7.144;2023-07-28T04:50:44;18.30;99.90
31733;DHT22;18312;51.486;7.144;2023-07-28T04:53:12;18.30;99.90
31733;DHT22;18312;51.486;7.144;2023-07-28T04:55:39;18.40;99.90
31733;DHT22;18312;51.486;7.144;2023-07-28T04:58:05;18.40;99.90
31733;DHT22;18312;51.486;7.144;2023-07-28T05:00:32;18.40;99.90
31733;DHT22;18312;51.486;7.144;2023-07-28T05:02:59;18.30;99.90
31733;DHT22;18312;51.486;7.144;2023-07-28T05:05:25;18.40;99.90
31733;DHT22;18312;51.486;7.144;2023-07-28T05:07:52;18.40;99.90
31733;DHT22;18312;51.486;7.144;2023-07-28T05:10:20;18.40;99.90
31733;DHT22;18312;51.486;7.144;2023-07-28T05:12:46;18.50;99.90
31733;DHT22;18312;51.486;7.144;2023-07-28T05:15:13;18.60;99.90
31733;DHT22;18312;51.486;7.144;2023-07-28T05:17:40;18.60;99.90
31733;DHT22;18312;51.486;7.144;2023-07-28T05:20:07;18.70;99.90
31733;DHT22;18312;51.486;7.144;2023-07-28T05:22:33;18.80;99.90
31733;DHT22;18312;51.486;7.144;2023-07-28T05:25:00;18.90;99.90
31733;DHT22;18312;51.486;7.144;2023-07-28T05:27:28;18.80;99.90
31733;DHT22;18312;51.486;7.144;2023-07-28T05:29:54;18.90;99.90
31733;DHT22;18312;51.486;7.144;2023-07-28T05:32:21;18.90;99.90
31733;DHT22;18312;51.486;7.144;2023-07-28T05:34:47;19.00;99.90
31733;DHT22;18312;51.486;7.144;2023-07-28T05:37:14;19.00;99.90
31733;DHT22;18312;51.486;7.144;2023-07-28T05:39:41;18.90;99.90
31733;DHT22;18312;51.486;7.144;2023-07-28T05:42:08;18.90;99.90
31733;DHT22;18312;51.486;7.144;2023-07-28T05:44:36;19.00;99.90
31733;DHT22;18312;51.486;7.144;2023-07-28T05:47:02;18.90;99.90
31733;DHT22;18312;51.486;7.144;2023-07-28T05:49:30;19.10;99.90
31733;DHT22;18312;51.486;7.144;2023-07-28T05:51:57;19.10;99.90
31733;DHT22;18312;51.486;7.144;2023-07-28T05:54:24;19.10;99.90
31733;DHT22;18312;51.486;7.144;2023-07-28T05:56:50;19.10;99.90
31733;DHT22;18312;51.486;7.144;2023-07-28T05:59:17;19.10;99.90
31733;DHT22;18312;51.486;7.144;2023-07-28T06:01:45;19.10;99.90
31733;DHT22;18312;51.486;7.144;2023-07-28T06:04:12;19.00;99.90
31733;DHT22;18312;51.486;7.144;2023-07-28T06:06:39;19.00;99.90
31733;DHT22;18312;51.486;7.144;2023-07-28T06:09:05;19.10;99.90
31733;DHT22;18312;51.486;7.144;2023-07-28T06:11:32;19.10;99.90
31733;DHT22;18312;51.486;7.144;2023-07-28T06:13:58;19.00;99.90
31733;DHT22;18312;51.486;7.144;2023-07-28T06:16:25;19.10;99.90
31733;DHT22;18312;51.486;7.144;2023-07-28T06:18:52;19.10;99.90
31733;DHT22;18312;51.486;7.144;2023-07-28T06:21:19;19.10;99.90
31733;DHT22;18312;51.486;7.144;2023-07-28T06:23:46;19.20;99.90
31733;DHT22;18312;51.486;7.144;2023-07-28T06:26:12;19.20;99.90
31733;DHT22;18312;51.486;7.144;2023-07-28T06:28:39;19.20;99.90
31733;DHT22;18312;51.486;7.144;2023-07-28T06:31:05;19.20;99.90
31733;DHT22;18312;51.486;7.144;2023-07-28T06:33:32;19.20;99.90
31733;DHT22;18312;51.486;7.144;2023-07-28T06:36:00;19.30;99.90
31733;DHT22;18312;51.486;7.144;2023-07-28T06:38:27;19.50;99.90
31733;DHT22;18312;51.486;7.144;2023-07-28T06:40:53;19.50;99.90
31733;DHT22;18312;51.486;7.144;2023-07-28T06:43:20;19.50;99.90
31733;DHT22;18312;51.486;7.144;2023-07-28T06:45:47;19.50;99.90
31733;DHT22;18312;51.486;7.144;2023-07-28T06:48:16;19.50;99.90
31733;DHT22;18312;51.486;7.144;2023-07-28T06:50:43;19.70;99.90
31733;DHT22;18312;51.486;7.144;2023-07-28T06:53:11;19.80;99.90
31733;DHT22;18312;51.486;7.144;2023-07-28T06:55:37;19.90;99.90
31733;DHT22;18312;51.486;7.144;2023-07-28T06:58:04;20.10;99.90
31733;DHT22;18312;51.486;7.144;2023-07-28T07:00:31;20.10;99.90
31733;DHT22;18312;51.486;7.144;2023-07-28T07:02:57;20.10;99.90
31733;DHT22;18312;51.486;7.144;2023-07-28T07:05:24;20.20;99.90
31733;DHT22;18312;51.486;7.144;2023-07-28T07:07:50;20.20;99.90
31733;DHT22;18312;51.486;7.144;2023-07-28T07:10:19;20.30;99.90
31733;DHT22;18312;51.486;7.144;2023-07-28T07:12:46;20.00;99.90
31733;DHT22;18312;51.486;7.144;2023-07-28T07:15:13;19.70;99.90
31733;DHT22;18312;51.486;7.144;2023-07-28T07:17:39;19.80;99.90
31733;DHT22;18312;51.486;7.144;2023-07-28T07:20:06;20.00;99.90
31733;DHT22;18312;51.486;7.144;2023-07-28T07:22:33;19.90;99.90
31733;DHT22;18312;51.486;7.144;2023-07-28T07:25:00;19.90;99.90
31733;DHT22;18312;51.486;7.144;2023-07-28T07:27:28;20.00;99.90
31733;DHT22;18312;51.486;7.144;2023-07-28T07:29:54;20.10;99.90
31733;DHT22;18312;51.486;7.144;2023-07-28T07:32:21;20.10;99.90
31733;DHT22;18312;51.486;7.144;2023-07-28T07:34:47;20.10;99.90
31733;DHT22;18312;51.486;7.144;2023-07-28T07:37:16;20.20;99.90
31733;DHT22;18312;51.486;7.144;2023-07-28T07:39:43;20.20;99.90
31733;DHT22;18312;51.486;7.144;2023-07-28T07:42:10;20.40;99.90
31733;DHT22;18312;51.486;7.144;2023-07-28T07:44:38;20.30;99.90
31733;DHT22;18312;51.486;7.144;2023-07-28T07:47:11;20.30;99.90
31733;DHT22;18312;51.486;7.144;2023-07-28T07:49:37;20.40;99.90
31733;DHT22;18312;51.486;7.144;2023-07-28T07:52:05;20.50;99.90
31733;DHT22;18312;51.486;7.144;2023-07-28T07:54:31;20.40;99.90
31733;DHT22;18312;51.486;7.144;2023-07-28T07:56:58;20.40;99.90
31733;DHT22;18312;51.486;7.144;2023-07-28T07:59:25;20.50;99.90
31733;DHT22;18312;51.486;7.144;2023-07-28T08:01:55;20.40;99.90
31733;DHT22;18312;51.486;7.144;2023-07-28T08:04:21;20.70;99.90
31733;DHT22;18312;51.486;7.144;2023-07-28T08:06:48;21.10;99.90
31733;DHT22;18312;51.486;7.144;2023-07-28T08:09:15;21.20;99.90
31733;DHT22;18312;51.486;7.144;2023-07-28T08:11:41;21.30;99.90
31733;DHT22;18312;51.486;7.144;2023-07-28T08:14:08;21.00;99.90
31733;DHT22;18312;51.486;7.144;2023-07-28T08:16:34;20.80;99.90
31733;DHT22;18312;51.486;7.144;2023-07-28T08:19:02;21.20;99.90
31733;DHT22;18312;51.486;7.144;2023-07-28T08:21:29;21.00;99.90
31733;DHT22;18312;51.486;7.144;2023-07-28T08:24:01;20.70;99.90
31733;DHT22;18312;51.486;7.144;2023-07-28T08:26:29;21.00;99.90
31733;DHT22;18312;51.486;7.144;2023-07-28T08:28:55;20.90;99.90
31733;DHT22;18312;51.486;7.144;2023-07-28T08:31:22;20.60;99.90
31733;DHT22;18312;51.486;7.144;2023-07-28T08:33:48;20.50;99.90
31733;DHT22;18312;51.486;7.144;2023-07-28T08:36:16;20.50;99.90
31733;DHT22;18312;51.486;7.144;2023-07-28T08:38:43;20.80;99.90
31733;DHT22;18312;51.486;7.144;2023-07-28T08:41:10;21.20;99.90
31733;DHT22;18312;51.486;7.144;2023-07-28T08:43:37;21.00;99.90
31733;DHT22;18312;51.486;7.144;2023-07-28T08:46:03;20.90;99.90
31733;DHT22;18312;51.486;7.144;2023-07-28T08:48:30;20.50;99.90
31733;DHT22;18312;51.486;7.144;2023-07-28T08:50:57;20.50;99.90
31733;DHT22;18312;51.486;7.144;2023-07-28T08:53:25;20.70;99.90
31733;DHT22;18312;51.486;7.144;2023-07-28T08:55:51;20.50;99.90
31733;DHT22;18312;51.486;7.144;2023-07-28T08:58:19;20.60;99.90
31733;DHT22;18312;51.486;7.144;2023-07-28T09:00:46;20.50;99.90
31733;DHT22;18312;51.486;7.144;2023-07-28T09:03:14;20.60;99.90
31733;DHT22;18312;51.486;7.144;2023-07-28T09:05:42;20.70;99.90
31733;DHT22;18312;51.486;7.144;2023-07-28T09:08:08;20.90;99.90
31733;DHT22;18312;51.486;7.144;2023-07-28T09:10:43;20.80;99.90
31733;DHT22;18312;51.486;7.144;2023-07-28T09:13:10;20.80;99.90
31733;DHT22;18312;51.486;7.144;2023-07-28T09:15:37;20.50;99.90
31733;DHT22;18312;51.486;7.144;2023-07-28T09:18:04;20.50;99.90
31733;DHT22;18312;51.486;7.144;2023-07-28T09:20:33;20.60;99.90
31733;DHT22;18312;51.486;7.144;2023-07-28T09:23:00;20.70;99.90
31733;DHT22;18312;51.486;7.144;2023-07-28T09:25:28;20.70;99.90
31733;DHT22;18312;51.486;7.144;2023-07-28T09:27:56;20.80;99.90
31733;DHT22;18312;51.486;7.144;2023-07-28T09:30:23;20.90;99.90
31733;DHT22;18312;51.486;7.144;2023-07-28T09:32:51;21.10;99.90
31733;DHT22;18312;51.486;7.144;2023-07-28T09:35:19;21.70;99.90
31733;DHT22;18312;51.486;7.144;2023-07-28T09:37:46;22.30;99.90
31733;DHT22;18312;51.486;7.144;2023-07-28T09:40:14;22.10;99.90
31733;DHT22;18312;51.486;7.144;2023-07-28T09:42:41;21.90;99.90
31733;DHT22;18312;51.486;7.144;2023-07-28T09:45:10;21.70;99.90
31733;DHT22;18312;51.486;7.144;2023-07-28T09:47:37;22.80;99.90
31733;DHT22;18312;51.486;7.144;2023-07-28T09:50:05;22.80;99.90
31733;DHT22;18312;51.486;7.144;2023-07-28T09:52:34;22.30;99.90
31733;DHT22;18312;51.486;7.144;2023-07-28T09:55:00;21.90;99.90
31733;DHT22;18312;51.486;7.144;2023-07-28T09:57:29;21.50;99.90
31733;DHT22;18312;51.486;7.144;2023-07-28T09:59:56;21.50;99.90
31733;DHT22;18312;51.486;7.144;2023-07-28T10:02:24;21.60;99.90
31733;DHT22;18312;51.486;7.144;2023-07-28T10:04:51;21.70;99.90
31733;DHT22;18312;51.486;7.144;2023-07-28T10:07:18;21.80;99.90
31733;DHT22;18312;51.486;7.144;2023-07-28T10:09:45;21.80;99.90
31733;DHT22;18312;51.486;7.144;2023-07-28T10:12:17;21.90;99.90
31733;DHT22;18312;51.486;7.144;2023-07-28T10:14:43;21.90;99.90
31733;DHT22;18312;51.486;7.144;2023-07-28T10:17:15;22.10;99.90
31733;DHT22;18312;51.486;7.144;2023-07-28T10:19:43;22.10;99.90
31733;DHT22;18312;51.486;7.144;2023-07-28T10:22:10;22.00;99.90
31733;DHT22;18312;51.486;7.144;2023-07-28T10:24:49;22.10;99.90
31733;DHT22;18312;51.486;7.144;2023-07-28T10:27:27;22.40;99.90
31733;DHT22;18312;51.486;7.144;2023-07-28T10:29:55;22.90;99.90
31733;DHT22;18312;51.486;7.144;2023-07-28T10:32:25;22.90;99.90
31733;DHT22;18312;51.486;7.144;2023-07-28T10:34:59;22.20;99.90
31733;DHT22;18312;51.486;7.144;2023-07-28T10:37:26;21.90;99.90
31733;DHT22;18312;51.486;7.144;2023-07-28T10:42:34;22.70;99.90
31733;DHT22;18312;51.486;7.144;2023-07-28T10:45:01;22.90;99.90
31733;DHT22;18312;51.486;7.144;2023-07-28T10:47:28;23.10;99.90
31733;DHT22;18312;51.486;7.144;2023-07-28T10:49:55;23.10;99.90
31733;DHT22;18312;51.486;7.144;2023-07-28T10:52:24;23.10;99.90
31733;DHT22;18312;51.486;7.144;2023-07-28T10:54:53;23.10;99.90
31733;DHT22;18312;51.486;7.144;2023-07-28T10:57:20;23.10;99.90
31733;DHT22;18312;51.486;7.144;2023-07-28T10:59:46;23.20;99.90
31733;DHT22;18312;51.486;7.144;2023-07-28T11:02:14;23.20;99.90
31733;DHT22;18312;51.486;7.144;2023-07-28T11:04:45;23.30;99.90
31733;DHT22;18312;51.486;7.144;2023-07-28T11:07:12;23.40;99.90
31733;DHT22;18312;51.486;7.144;2023-07-28T11:09:40;23.40;99.90
31733;DHT22;18312;51.486;7.144;2023-07-28T11:12:08;23.20;99.90
31733;DHT22;18312;51.486;7.144;2023-07-28T11:14:35;23.30;99.90
31733;DHT22;18312;51.486;7.144;2023-07-28T11:17:01;23.50;99.90
31733;DHT22;18312;51.486;7.144;2023-07-28T11:19:28;23.60;99.90
31733;DHT22;18312;51.486;7.144;2023-07-28T11:21:55;23.30;99.90
31733;DHT22;18312;51.486;7.144;2023-07-28T11:24:23;23.30;99.90
31733;DHT22;18312;51.486;7.144;2023-07-28T11:26:52;23.30;99.90
31733;DHT22;18312;51.486;7.144;2023-07-28T11:29:19;23.70;99.90
31733;DHT22;18312;51.486;7.144;2023-07-28T11:31:46;24.00;99.90
31733;DHT22;18312;51.486;7.144;2023-07-28T11:34:13;23.80;99.90
31733;DHT22;18312;51.486;7.144;2023-07-28T11:36:40;23.80;99.90
31733;DHT22;18312;51.486;7.144;2023-07-28T11:39:07;24.10;99.90
31733;DHT22;18312;51.486;7.144;2023-07-28T11:41:35;24.00;99.90
31733;DHT22;18312;51.486;7.144;2023-07-28T11:44:04;24.10;99.90
31733;DHT22;18312;51.486;7.144;2023-07-28T11:46:34;24.30;99.90
31733;DHT22;18312;51.486;7.144;2023-07-28T11:49:09;24.10;99.90
31733;DHT22;18312;51.486;7.144;2023-07-28T11:51:38;23.70;99.90
31733;DHT22;18312;51.486;7.144;2023-07-28T11:54:08;23.70;99.90
31733;DHT22;18312;51.486;7.144;2023-07-28T11:56:36;23.80;99.90
31733;DHT22;18312;51.486;7.144;2023-07-28T11:59:04;23.80;99.90
31733;DHT22;18312;51.486;7.144;2023-07-28T12:01:31;23.70;99.90
31733;DHT22;18312;51.486;7.144;2023-07-28T12:03:58;23.40;99.90
31733;DHT22;18312;51.486;7.144;2023-07-28T12:06:25;23.20;99.90
31733;DHT22;18312;51.486;7.144;2023-07-28T12:08:52;22.80;99.90
31733;DHT22;18312;51.486;7.144;2023-07-28T12:11:20;22.20;99.90
31733;DHT22;18312;51.486;7.144;2023-07-28T12:13:49;21.70;99.90
31733;DHT22;18312;51.486;7.144;2023-07-28T12:19:10;20.80;99.90
31733;DHT22;18312;51.486;7.144;2023-07-28T12:21:36;20.30;99.90
31733;DHT22;18312;51.486;7.144;2023-07-28T12:24:03;20.10;99.90
31733;DHT22;18312;51.486;7.144;2023-07-28T12:26:30;20.40;99.90
31733;DHT22;18312;51.486;7.144;2023-07-28T12:28:57;20.90;99.90
31733;DHT22;18312;51.486;7.144;2023-07-28T12:31:23;21.20;99.90
31733;DHT22;18312;51.486;7.144;2023-07-28T12:33:50;21.60;99.90
31733;DHT22;18312;51.486;7.144;2023-07-28T12:36:18;21.70;99.90
31733;DHT22;18312;51.486;7.144;2023-07-28T12:38:44;22.00;99.90
31733;DHT22;18312;51.486;7.144;2023-07-28T12:41:11;22.10;99.90
31733;DHT22;18312;51.486;7.144;2023-07-28T12:43:37;22.30;99.90
31733;DHT22;18312;51.486;7.144;2023-07-28T12:46:04;22.20;99.90
31733;DHT22;18312;51.486;7.144;2023-07-28T12:48:31;22.40;99.90
31733;DHT22;18312;51.486;7.144;2023-07-28T12:50:58;22.80;99.90
31733;DHT22;18312;51.486;7.144;2023-07-28T12:53:26;22.30;99.90
31733;DHT22;18312;51.486;7.144;2023-07-28T12:55:52;22.40;99.90
31733;DHT22;18312;51.486;7.144;2023-07-28T12:58:20;22.80;99.90
31733;DHT22;18312;51.486;7.144;2023-07-28T13:00:47;22.90;99.90
31733;DHT22;18312;51.486;7.144;2023-07-28T13:03:13;22.30;99.90
31733;DHT22;18312;51.486;7.144;2023-07-28T13:05:40;22.20;99.90
31733;DHT22;18312;51.486;7.144;2023-07-28T13:08:08;22.20;99.90
31733;DHT22;18312;51.486;7.144;2023-07-28T13:10:36;22.50;99.90
31733;DHT22;18312;51.486;7.144;2023-07-28T13:13:03;22.50;99.90
31733;DHT22;18312;51.486;7.144;2023-07-28T13:15:30;22.70;99.90
31733;DHT22;18312;51.486;7.144;2023-07-28T13:17:56;23.20;99.90
31733;DHT22;18312;51.486;7.144;2023-07-28T13:20:23;23.00;99.90
31733;DHT22;18312;51.486;7.144;2023-07-28T13:22:49;23.40;99.90
31733;DHT22;18312;51.486;7.144;2023-07-28T13:25:16;23.40;99.90
31733;DHT22;18312;51.486;7.144;2023-07-28T13:27:44;23.20;99.90
31733;DHT22;18312;51.486;7.144;2023-07-28T13:30:11;23.20;99.90
31733;DHT22;18312;51.486;7.144;2023-07-28T13:32:38;23.40;99.90
31733;DHT22;18312;51.486;7.144;2023-07-28T13:35:05;23.20;99.90
31733;DHT22;18312;51.486;7.144;2023-07-28T13:37:32;23.40;99.90
31733;DHT22;18312;51.486;7.144;2023-07-28T13:39:59;23.60;99.90
31733;DHT22;18312;51.486;7.144;2023-07-28T13:42:25;23.80;99.90
31733;DHT22;18312;51.486;7.144;2023-07-28T13:44:53;23.50;99.90
31733;DHT22;18312;51.486;7.144;2023-07-28T13:47:20;23.90;99.90
31733;DHT22;18312;51.486;7.144;2023-07-28T13:49:47;24.30;99.90
31733;DHT22;18312;51.486;7.144;2023-07-28T13:52:13;24.00;99.90
31733;DHT22;18312;51.486;7.144;2023-07-28T13:54:40;24.10;99.90
31733;DHT22;18312;51.486;7.144;2023-07-28T13:57:07;24.30;99.90
31733;DHT22;18312;51.486;7.144;2023-07-28T13:59:33;24.00;99.90
31733;DHT22;18312;51.486;7.144;2023-07-28T14:02:01;23.90;99.90
31733;DHT22;18312;51.486;7.144;2023-07-28T14:04:28;23.70;99.90
31733;DHT22;18312;51.486;7.144;2023-07-28T14:06:55;23.70;99.90
31733;DHT22;18312;51.486;7.144;2023-07-28T14:09:22;23.80;99.90
31733;DHT22;18312;51.486;7.144;2023-07-28T14:11:52;23.80;99.90
31733;DHT22;18312;51.486;7.144;2023-07-28T14:14:18;23.70;99.90
31733;DHT22;18312;51.486;7.144;2023-07-28T14:16:45;23.80;99.90
31733;DHT22;18312;51.486;7.144;2023-07-28T14:19:13;23.40;99.90
31733;DHT22;18312;51.486;7.144;2023-07-28T14:21:40;23.50;99.90
31733;DHT22;18312;51.486;7.144;2023-07-28T14:24:06;23.50;99.90
31733;DHT22;18312;51.486;7.144;2023-07-28T14:26:33;23.50;99.90
31733;DHT22;18312;51.486;7.144;2023-07-28T14:28:59;23.30;99.90
31733;DHT22;18312;51.486;7.144;2023-07-28T14:31:26;23.60;99.90
31733;DHT22;18312;51.486;7.144;2023-07-28T14:33:53;23.60;99.90
31733;DHT22;18312;51.486;7.144;2023-07-28T14:36:20;23.40;99.90
31733;DHT22;18312;51.486;7.144;2023-07-28T14:38:47;23.40;99.90
31733;DHT22;18312;51.486;7.144;2023-07-28T14:41:14;23.70;99.90
31733;DHT22;18312;51.486;7.144;2023-07-28T14:43:40;23.70;99.90
31733;DHT22;18312;51.486;7.144;2023-07-28T14:46:07;23.60;99.90
31733;DHT22;18312;51.486;7.144;2023-07-28T14:48:33;23.70;99.90
31733;DHT22;18312;51.486;7.144;2023-07-28T14:51:01;23.90;99.90
31733;DHT22;18312;51.486;7.144;2023-07-28T14:53:29;24.00;99.90
31733;DHT22;18312;51.486;7.144;2023-07-28T14:55:56;23.90;99.90
31733;DHT22;18312;51.486;7.144;2023-07-28T14:58:22;23.60;99.90
31733;DHT22;18312;51.486;7.144;2023-07-28T15:00:49;23.60;99.90
31733;DHT22;18312;51.486;7.144;2023-07-28T15:03:16;23.40;99.90
31733;DHT22;18312;51.486;7.144;2023-07-28T15:05:42;23.30;99.90
31733;DHT22;18312;51.486;7.144;2023-07-28T15:08:09;23.20;99.90
31733;DHT22;18312;51.486;7.144;2023-07-28T15:10:37;23.30;99.90
31733;DHT22;18312;51.486;7.144;2023-07-28T15:13:03;23.30;99.90
31733;DHT22;18312;51.486;7.144;2023-07-28T15:15:30;23.50;99.90
31733;DHT22;18312;51.486;7.144;2023-07-28T15:17:57;23.70;99.90
31733;DHT22;18312;51.486;7.144;2023-07-28T15:20:23;23.60;99.90
31733;DHT22;18312;51.486;7.144;2023-07-28T15:22:50;23.40;99.90
31733;DHT22;18312;51.486;7.144;2023-07-28T15:25:17;23.10;99.90
31733;DHT22;18312;51.486;7.144;2023-07-28T15:27:44;23.10;99.90
31733;DHT22;18312;51.486;7.144;2023-07-28T15:30:11;22.90;99.90
31733;DHT22;18312;51.486;7.144;2023-07-28T15:32:38;22.90;99.90
31733;DHT22;18312;51.486;7.144;2023-07-28T15:35:05;22.80;99.90